Skip Navigation Links
NOAA logo - Click to go to the NOAA homepage
NOAA's National Weather Service
Alaska Aviation Weather Unit
  NWS logo - Click to go to the NWS homepage
Left Navbar Graphic     09 AKDT = 17 GMT

   
NOAA is celebrating 200 years of science, service, and stewardship. Visit the NOAA 200th celebration Web site to learn more.
USA.gov is the U.S. Government's official Web portal to all Federal, state and local government Web resources and services.
Facebook
NWS on Facebook

Important Change Regarding the AAWU Web Presence

 

Over the last several months, the AAWU has been working to navigate its webpages to a nationally supported server. Security, as well as other needs, have necessitated the change.  In the process, we have made an effort to enhance the functionality of our website, as well as some of our products. As of June 20, 2017, aawu.arh.noaa.gov will be discontinued. The new AAWU web address is weather.gov/aawu. It is now live and will run in-parallel with the old site until it is discontinued. Please send any feedback or questions regarding the new webpages to nws.ar.aawu.webauthors@noaa.gov.  Thank you for your patience during this time of transition.
AAWU Home :: Display TAF Add Bookmark
METAR PASO 271153Z AUTO 00000KT 10SM BKN033 03/03 A3008 RMK AO2
    SLP187 60003 70011 T00280028 10050 20028 58005 TSNO=

METAR PASO 271253Z AUTO 00000KT 10SM BKN039 OVC110 03/02 A3008 RMK AO2
     SLP186 T00280022 TSNO=

METAR PASO 271353Z AUTO VRB03KT 10SM SCT041 OVC100 03/02 A3007 RMK AO2
     SLP184 T00280022 TSNO=

METAR PASO 271453Z AUTO 00000KT 10SM SCT045 BKN055 BKN120 03/03
    A3007 RMK AO2 SLP182 T00330028 58004 TSNO=

METAR PASO 271553Z AUTO 00000KT 10SM SCT044 BKN050 OVC060 04/03 A3006
     RMK AO2 SLP180 T00440033 TSNO=

METAR PASO 271653Z AUTO 21004KT 10SM -RA BKN046 OVC055 05/03 A3006
    RMK AO2 RAB52 SLP179 P0000 T00500028 TSNO=


NOAA's National Weather Service
Alaska Aviation Weather Unit
6930 Sand Lake Road
Anchorage, AK 99502-1845
Disclaimer
Credits
Glossary
Privacy Policy
About Us
Career Opportunities
Contact AAWU Internet Services Site last modified: April, 17th 2012